Time;durP1;ratioP1;P1;durP2;ratioP2;P2;SDS_P1;SDS_P2;PMS_P1;PMS_P2;Temp;Humidity;BMP_temperature;BMP_pressure;BME280_temperature;BME280_humidity;BME280_pressure;Samples;Min_cycle;Max_cycle;Signal;HPM_P1;HPM_P2
2021/12/18 00:01:54;;;;;;;110.25;16.75;;;;;;;2.40;93.08;102374.38;5082949;28;20024;-72
2021/12/18 00:04:20;;;;;;;118.30;16.48;;;;;;;2.41;93.20;102365.91;5082429;28;20021;-71
2021/12/18 00:06:45;;;;;;;131.68;15.52;;;;;;;2.39;93.24;102367.47;5082577;28;20088;-71
2021/12/18 00:09:11;;;;;;;99.93;12.23;;;;;;;2.40;93.30;102371.81;5082391;28;20016;-71
2021/12/18 00:11:36;;;;;;;125.20;15.70;;;;;;;2.42;93.29;102359.97;5082680;28;20024;-71
2021/12/18 00:14:02;;;;;;;67.82;9.80;;;;;;;2.45;93.38;102361.03;5082540;28;20025;-70
2021/12/18 00:16:27;;;;;;;152.57;18.48;;;;;;;2.44;93.43;102348.13;5085560;28;20049;-70
2021/12/18 00:18:55;;;;;;;142.77;15.75;;;;;;;2.52;93.43;102354.56;5086138;28;20031;-72
2021/12/18 00:21:21;;;;;;;79.85;12.10;;;;;;;2.54;93.13;102352.09;5086008;28;20035;-72
2021/12/18 00:23:47;;;;;;;36.53;7.43;;;;;;;2.52;93.17;102348.56;5086218;28;20033;-72
2021/12/18 00:26:12;;;;;;;140.75;15.00;;;;;;;2.52;93.49;102341.75;5086205;28;20031;-72
2021/12/18 00:28:38;;;;;;;195.90;16.17;;;;;;;2.55;93.77;102338.47;5085985;28;20309;-73
2021/12/18 00:31:03;;;;;;;158.52;15.57;;;;;;;2.56;93.94;102337.66;5086125;28;20040;-73
2021/12/18 00:33:28;;;;;;;215.00;20.08;;;;;;;2.62;93.83;102330.31;5086055;28;20048;-73
2021/12/18 00:35:54;;;;;;;184.00;16.55;;;;;;;2.71;94.08;102329.94;5085753;28;20030;-71
2021/12/18 00:38:19;;;;;;;170.38;14.52;;;;;;;2.73;94.52;102329.22;5085866;28;20327;-73
2021/12/18 00:40:47;;;;;;;187.02;21.63;;;;;;;2.82;94.66;102322.84;5085905;28;20028;-73
2021/12/18 00:43:28;;;;;;;213.85;19.65;;;;;;;2.84;95.02;102318.69;5085832;28;20107;-75
2021/12/18 00:45:53;;;;;;;239.38;20.92;;;;;;;2.85;94.88;102308.50;5085780;28;20031;-74
2021/12/18 00:48:19;;;;;;;246.80;21.02;;;;;;;2.95;95.11;102312.47;5085990;28;20016;-75
2021/12/18 00:50:45;;;;;;;245.15;22.60;;;;;;;2.97;94.96;102300.56;5085452;28;20473;-74
2021/12/18 00:53:10;;;;;;;225.48;22.55;;;;;;;3.05;95.04;102307.81;5085825;28;20025;-74
2021/12/18 00:55:37;;;;;;;170.05;15.40;;;;;;;3.09;95.17;102312.31;5085451;28;20108;-73
2021/12/18 00:58:03;;;;;;;249.07;21.05;;;;;;;3.08;95.08;102311.41;5085520;28;20021;-74
2021/12/18 01:00:30;;;;;;;359.92;28.77;;;;;;;3.11;95.06;102313.28;5085583;28;20020;-75
2021/12/18 01:02:59;;;;;;;271.90;24.83;;;;;;;3.15;95.08;102309.16;5085704;28;20380;-74
2021/12/18 01:05:27;;;;;;;329.23;27.48;;;;;;;3.12;94.93;102307.31;5085103;28;20499;-74
2021/12/18 01:07:55;;;;;;;324.45;26.67;;;;;;;3.14;94.86;102310.88;5085485;28;20123;-75
2021/12/18 01:12:52;;;;;;;221.20;17.92;;;;;;;3.17;94.49;102305.91;5085485;28;20112;-74
2021/12/18 01:15:29;;;;;;;201.18;20.25;;;;;;;3.18;94.32;102306.78;5085124;28;20430;-72
2021/12/18 01:23:24;;;;;;;303.08;25.30;;;;;;;2.95;93.99;102302.19;5085390;28;20085;-73
2021/12/18 01:25:52;;;;;;;133.90;10.45;;;;;;;2.95;93.90;102298.75;5084687;28;20024;-72
2021/12/18 01:28:17;;;;;;;313.60;24.55;;;;;;;2.94;93.90;102300.41;5085462;28;20106;-73
2021/12/18 01:30:43;;;;;;;289.02;25.05;;;;;;;2.91;93.89;102300.25;5083675;28;20024;-73
2021/12/18 01:33:09;;;;;;;146.00;12.82;;;;;;;2.92;93.91;102309.72;5085000;28;20083;-73
2021/12/18 01:35:35;;;;;;;82.00;8.25;;;;;;;2.86;93.87;102301.66;5084408;28;20032;-74
2021/12/18 01:38:01;;;;;;;211.82;19.67;;;;;;;2.85;93.71;102303.38;5083261;28;20025;-73
2021/12/18 01:40:26;;;;;;;241.13;18.83;;;;;;;2.78;94.03;102308.09;5084405;28;20043;-74
2021/12/18 01:51:19;;;;;;;167.32;16.83;;;;;;;2.60;93.99;102311.41;5084276;28;20408;-74
2021/12/18 01:53:47;;;;;;;185.15;15.93;;;;;;;2.60;94.12;102316.53;5084522;28;20098;-73
2021/12/18 01:56:13;;;;;;;123.15;11.23;;;;;;;2.56;94.21;102302.66;5084361;28;20052;-75
2021/12/18 01:58:38;;;;;;;161.38;12.85;;;;;;;2.67;94.13;102310.94;5084265;28;20017;-74
2021/12/18 02:01:04;;;;;;;153.57;17.25;;;;;;;2.66;94.20;102298.03;5084389;28;20026;-74
2021/12/18 02:03:31;;;;;;;48.60;6.47;;;;;;;2.69;94.17;102299.09;5084649;28;20087;-74
2021/12/18 02:05:56;;;;;;;109.82;11.55;;;;;;;2.67;94.11;102298.09;5083938;28;20032;-74
2021/12/18 02:08:24;;;;;;;139.75;14.70;;;;;;;2.61;94.08;102292.66;5082780;28;20024;-75
2021/12/18 02:14:07;;;;;;;108.13;9.30;;;;;;;2.54;94.03;102270.91;5073992;28;20036;-73
2021/12/18 02:21:59;;;;;;;114.75;9.02;;;;;;;2.31;94.07;102256.81;5084181;28;20355;-74
2021/12/18 02:24:28;;;;;;;93.75;12.20;;;;;;;2.32;94.27;102272.28;5084088;28;20028;-74
2021/12/18 02:26:53;;;;;;;162.07;16.15;;;;;;;2.26;94.53;102264.25;5083710;28;20047;-74
2021/12/18 02:29:19;;;;;;;77.75;7.10;;;;;;;2.27;94.75;102267.72;5082536;28;20458;-74
2021/12/18 02:31:45;;;;;;;82.07;8.55;;;;;;;2.28;94.60;102269.47;5083638;28;20507;-74
2021/12/18 02:34:17;;;;;;;78.03;8.35;;;;;;;2.27;94.59;102260.03;5083930;28;20029;-75
2021/12/18 02:36:47;;;;;;;206.13;16.60;;;;;;;2.26;94.43;102265.94;5083412;28;20169;-75
2021/12/18 02:40:54;;;;;;;77.38;8.23;;;;;;;2.29;94.73;102272.13;5082973;28;20031;-74
2021/12/18 02:42:12;;;;;;;106.90;8.30;;;;;;;2.27;94.63;102260.88;5077595;28;20060;-75
2021/12/18 02:44:41;;;;;;;86.07;9.98;;;;;;;2.27;94.40;102250.63;5083474;28;20028;-75
2021/12/18 02:47:07;;;;;;;131.48;10.45;;;;;;;2.27;94.61;102257.47;5083379;28;20454;-76
2021/12/18 02:49:33;;;;;;;153.68;11.40;;;;;;;2.22;94.49;102249.53;5081815;28;20423;-75
2021/12/18 02:51:58;;;;;;;102.03;7.57;;;;;;;2.21;94.58;102242.59;5083405;28;20021;-75
2021/12/18 02:54:25;;;;;;;104.05;10.40;;;;;;;2.20;94.32;102249.44;5083657;28;20435;-76
2021/12/18 02:56:50;;;;;;;116.72;10.43;;;;;;;2.17;94.39;102243.25;5083079;28;20100;-76
2021/12/18 02:59:17;;;;;;;74.30;6.35;;;;;;;2.16;94.63;102242.34;5082099;28;20048;-76
2021/12/18 03:01:42;;;;;;;145.85;10.02;;;;;;;2.15;94.69;102238.03;5083268;28;20058;-76
2021/12/18 03:04:18;;;;;;;108.07;9.63;;;;;;;2.16;94.71;102239.78;5083416;28;20029;-76
2021/12/18 03:06:49;;;;;;;147.70;14.07;;;;;;;2.17;94.58;102233.00;5082889;28;20020;-75
2021/12/18 03:19:03;;;;;;;161.35;14.88;;;;;;;2.12;94.82;102209.69;5083226;28;20024;-76
2021/12/18 03:21:18;;;;;;;210.98;15.88;;;;;;;2.20;94.71;102202.41;5082900;28;20110;-76
2021/12/18 03:25:44;;;;;;;155.43;12.25;;;;;;;2.20;94.58;102197.28;5082605;28;20676;-76
2021/12/18 03:28:10;;;;;;;97.10;9.55;;;;;;;2.16;94.61;102205.59;5081021;28;20054;-77
2021/12/18 03:30:37;;;;;;;174.48;12.57;;;;;;;2.07;94.69;102188.03;5082201;28;20021;-77
2021/12/18 03:33:04;;;;;;;158.50;12.07;;;;;;;2.15;94.48;102186.78;5081724;28;20108;-76
2021/12/18 03:35:30;;;;;;;152.38;10.98;;;;;;;2.06;94.74;102173.47;5082545;28;20025;-76
2021/12/18 03:37:56;;;;;;;127.47;8.43;;;;;;;2.09;94.92;102182.19;5082871;28;20515;-76
2021/12/18 03:40:24;;;;;;;96.65;9.40;;;;;;;2.12;94.78;102190.84;5083198;28;20095;-77
2021/12/18 03:42:50;;;;;;;186.18;15.52;;;;;;;2.12;95.04;102188.28;5082694;28;20044;-76
2021/12/18 03:45:18;;;;;;;119.85;10.35;;;;;;;2.18;94.95;102183.50;5082812;28;20028;-77
2021/12/18 03:47:45;;;;;;;279.25;21.65;;;;;;;2.26;94.73;102186.47;5082602;28;20035;-77
2021/12/18 03:50:11;;;;;;;179.27;15.18;;;;;;;2.17;94.80;102180.03;5085705;28;20029;-77
2021/12/18 03:52:37;;;;;;;81.25;8.80;;;;;;;2.20;94.72;102177.69;5085477;28;20097;-77
2021/12/18 03:55:04;;;;;;;269.63;21.77;;;;;;;2.29;94.73;102192.66;5086725;28;20020;-77
2021/12/18 03:57:30;;;;;;;263.08;20.13;;;;;;;2.32;94.69;102189.38;5085298;28;20024;-77
2021/12/18 03:59:56;;;;;;;262.10;22.25;;;;;;;2.32;94.84;102186.81;5086455;28;20067;-77
2021/12/18 04:02:21;;;;;;;209.70;19.35;;;;;;;2.31;94.96;102187.63;5086720;28;20051;-77
2021/12/18 04:04:47;;;;;;;286.58;22.23;;;;;;;2.40;95.20;102200.03;5085219;28;20027;-77
2021/12/18 04:07:12;;;;;;;215.95;18.42;;;;;;;2.50;94.69;102207.44;5086452;28;20101;-77
2021/12/18 04:09:38;;;;;;;267.95;21.83;;;;;;;2.48;94.86;102215.06;5086260;28;20045;-77
2021/12/18 04:12:03;;;;;;;256.60;25.13;;;;;;;2.52;94.63;102221.25;5086458;28;20071;-77
2021/12/18 04:14:29;;;;;;;258.08;19.42;;;;;;;2.48;94.34;102199.66;5084942;28;20032;-77
2021/12/18 04:16:55;;;;;;;100.20;10.55;;;;;;;2.51;94.57;102198.09;5086106;28;20055;-75
2021/12/18 04:19:20;;;;;;;159.40;14.52;;;;;;;2.58;94.49;102193.38;5086449;28;20057;-78
2021/12/18 04:21:46;;;;;;;225.20;19.77;;;;;;;2.52;94.64;102194.72;5086319;28;20029;-77
2021/12/18 04:24:12;;;;;;;283.92;23.70;;;;;;;2.52;94.73;102200.72;5086331;28;20036;-78
2021/12/18 04:26:37;;;;;;;157.93;16.60;;;;;;;2.52;94.75;102197.28;5084747;28;20023;-78
2021/12/18 04:29:06;;;;;;;178.25;16.73;;;;;;;2.59;94.42;102196.78;5084987;28;20027;-78
2021/12/18 04:31:33;;;;;;;129.10;11.10;;;;;;;2.63;94.61;102206.44;5086097;28;20486;-77
2021/12/18 04:33:58;;;;;;;100.93;11.32;;;;;;;2.70;94.40;102200.81;5086000;28;20028;-77
2021/12/18 04:36:24;;;;;;;207.38;18.88;;;;;;;2.73;94.52;102194.97;5085933;28;20515;-78
2021/12/18 04:38:49;;;;;;;152.13;16.13;;;;;;;2.72;94.78;102194.09;5086033;28;20025;-78
2021/12/18 04:41:23;;;;;;;128.27;12.68;;;;;;;2.69;94.27;102181.09;5085942;28;20060;-77
2021/12/18 04:43:50;;;;;;;218.55;18.60;;;;;;;2.66;93.97;102192.88;5085725;28;20039;-77
2021/12/18 04:46:15;;;;;;;273.60;24.05;;;;;;;2.66;93.82;102198.91;5084257;28;20084;-77
2021/12/18 04:48:41;;;;;;;236.05;19.38;;;;;;;2.55;93.75;102189.75;5085635;28;20027;-78
2021/12/18 04:51:06;;;;;;;339.02;26.17;;;;;;;2.60;93.78;102204.56;5085533;28;20035;-78
2021/12/18 04:53:32;;;;;;;218.82;20.40;;;;;;;2.56;94.02;102201.75;5084478;28;20032;-78
2021/12/18 04:55:57;;;;;;;227.60;17.00;;;;;;;2.59;94.33;102201.91;5085494;28;20263;-78
2021/12/18 04:58:22;;;;;;;167.02;14.95;;;;;;;2.61;93.94;102190.06;5085497;28;20466;-77
2021/12/18 05:00:48;;;;;;;155.80;13.85;;;;;;;2.59;94.02;102202.81;5084910;28;20082;-79
2021/12/18 05:03:16;;;;;;;150.32;13.98;;;;;;;2.60;93.78;102198.56;5085693;28;20137;-77
2021/12/18 05:05:42;;;;;;;93.07;10.80;;;;;;;2.54;93.64;102193.13;5083839;28;20020;-78
2021/12/18 05:08:07;;;;;;;206.43;17.83;;;;;;;2.43;93.47;102167.78;5085494;28;20099;-77
2021/12/18 05:10:33;;;;;;;157.25;13.25;;;;;;;2.42;93.64;102183.97;5083963;28;20041;-76
2021/12/18 05:12:58;;;;;;;70.28;7.35;;;;;;;2.36;93.33;102181.06;5085143;28;20088;-77
2021/12/18 05:15:24;;;;;;;126.82;11.90;;;;;;;2.23;92.95;102165.03;5083667;28;20020;-76
2021/12/18 05:17:50;;;;;;;190.00;16.15;;;;;;;2.18;93.28;102163.00;5084770;28;20033;-77
2021/12/18 05:20:15;;;;;;;194.27;15.23;;;;;;;2.14;93.46;102159.38;5083528;28;20035;-77
2021/12/18 05:22:41;;;;;;;141.25;14.43;;;;;;;2.10;93.58;102163.47;5084943;28;20020;-77
2021/12/18 05:25:07;;;;;;;246.77;19.23;;;;;;;2.14;93.34;102155.94;5084871;28;20028;-77
2021/12/18 05:27:33;;;;;;;71.70;9.43;;;;;;;2.02;93.21;102136.53;5084612;28;20020;-76
2021/12/18 05:29:58;;;;;;;158.82;13.73;;;;;;;2.04;93.03;102136.63;5084779;28;20404;-77
2021/12/18 05:32:24;;;;;;;106.97;8.93;;;;;;;1.89;93.22;102119.59;5084798;28;20028;-78
2021/12/18 05:34:49;;;;;;;98.93;11.60;;;;;;;1.89;93.33;102123.84;5084611;28;20016;-77
2021/12/18 05:39:40;;;;;;;202.05;14.05;;;;;;;1.78;93.63;102126.69;5084761;28;20080;-78
2021/12/18 05:42:06;;;;;;;102.43;10.43;;;;;;;1.78;93.71;102120.69;5083331;28;20036;-79
2021/12/18 05:44:31;;;;;;;200.60;16.75;;;;;;;1.76;94.08;102127.44;5084769;28;20043;-79
2021/12/18 05:46:56;;;;;;;91.97;7.13;;;;;;;1.78;94.03;102121.56;5084365;28;20563;-78
2021/12/18 05:49:22;;;;;;;154.57;12.48;;;;;;;1.81;94.16;102120.84;5084842;28;20021;-78
2021/12/18 05:51:48;;;;;;;208.98;20.02;;;;;;;1.77;94.51;102113.81;5084332;28;20023;-78
2021/12/18 05:54:14;;;;;;;254.52;23.10;;;;;;;1.84;94.47;102110.78;5084459;28;20048;-79
2021/12/18 05:56:40;;;;;;;266.75;23.55;;;;;;;1.86;94.48;102106.63;5084394;28;20039;-80
2021/12/18 05:59:05;;;;;;;338.23;25.67;;;;;;;1.91;94.54;102119.69;5084259;28;20021;-79
2021/12/18 06:01:32;;;;;;;50.33;5.13;;;;;;;1.93;94.38;102126.66;5084444;28;20111;-79
2021/12/18 06:03:58;;;;;;;296.60;22.63;;;;;;;1.90;94.14;102117.94;5085063;28;20028;-79
2021/12/18 06:06:24;;;;;;;295.30;24.40;;;;;;;1.87;94.29;102128.00;5084128;28;20029;-81
2021/12/18 06:08:50;;;;;;;196.30;16.90;;;;;;;1.83;94.57;102124.38;5082960;28;20112;-80
2021/12/18 06:11:16;;;;;;;222.27;18.38;;;;;;;1.90;94.60;102134.16;5082738;28;20108;-81
2021/12/18 06:13:43;;;;;;;256.48;21.55;;;;;;;1.98;94.58;102157.69;5083096;28;20072;-80
2021/12/18 06:16:10;;;;;;;158.35;14.27;;;;;;;2.00;94.56;102147.50;5083872;28;20020;-81
2021/12/18 06:18:37;;;;;;;149.25;14.25;;;;;;;2.13;94.66;102155.06;5083992;28;20035;-80
2021/12/18 06:21:04;;;;;;;177.20;15.07;;;;;;;2.15;94.96;102148.34;5082553;28;20016;-80
2021/12/18 06:23:29;;;;;;;197.63;16.85;;;;;;;2.14;94.40;102149.13;5084062;28;20039;-80
2021/12/18 06:25:56;;;;;;;165.40;16.50;;;;;;;2.16;94.44;102144.97;5083779;28;20024;-80
2021/12/18 06:28:21;;;;;;;151.48;10.38;;;;;;;2.20;94.29;102130.66;5084053;28;20017;-80
2021/12/18 06:30:48;;;;;;;177.65;14.75;;;;;;;2.15;94.42;102122.72;5084074;28;20366;-80
2021/12/18 06:33:14;;;;;;;159.23;15.82;;;;;;;2.21;94.37;102134.97;5083984;28;20016;-80
2021/12/18 06:35:39;;;;;;;115.22;9.52;;;;;;;2.11;94.44;102133.59;5083600;28;20028;-80
2021/12/18 06:38:04;;;;;;;130.10;10.93;;;;;;;2.16;94.43;102118.47;5083824;28;20080;-79
2021/12/18 06:40:30;;;;;;;201.75;16.40;;;;;;;2.17;94.36;102121.09;5084139;28;20049;-79
2021/12/18 06:42:55;;;;;;;127.80;10.45;;;;;;;2.20;94.24;102116.16;5083976;28;20028;-80
2021/12/18 06:45:20;;;;;;;104.03;8.00;;;;;;;2.18;94.27;102109.19;5083804;28;20447;-79
2021/12/18 06:47:46;;;;;;;153.32;11.95;;;;;;;2.25;94.18;102112.97;5083623;28;20472;-79
2021/12/18 06:50:11;;;;;;;55.65;5.55;;;;;;;2.23;94.19;102113.78;5083624;28;20021;-79
2021/12/18 06:52:36;;;;;;;144.35;12.00;;;;;;;2.19;94.02;102104.13;5083871;28;20055;-77
2021/12/18 06:55:03;;;;;;;171.52;11.60;;;;;;;2.17;94.08;102100.59;5083689;28;20131;-76
2021/12/18 06:57:28;;;;;;;112.32;9.88;;;;;;;2.18;94.32;102093.81;5083679;28;20028;-76
2021/12/18 06:59:54;;;;;;;204.63;14.88;;;;;;;2.20;94.14;102090.53;5083452;28;20035;-77
2021/12/18 07:02:20;;;;;;;155.52;12.55;;;;;;;2.15;94.44;102091.09;5083525;28;20021;-77
2021/12/18 07:04:45;;;;;;;105.43;8.38;;;;;;;2.19;94.08;102087.91;5083278;28;20029;-78
2021/12/18 07:07:11;;;;;;;104.13;11.07;;;;;;;2.10;94.26;102072.91;5083400;28;20031;-77
2021/12/18 07:09:36;;;;;;;125.65;11.95;;;;;;;2.08;94.26;102074.50;5082219;28;20334;-77
2021/12/18 07:12:02;;;;;;;118.90;11.43;;;;;;;2.03;94.41;102075.94;5083386;28;20024;-79
2021/12/18 07:14:28;;;;;;;155.65;11.10;;;;;;;2.00;94.38;102065.53;5082312;28;20027;-77
2021/12/18 07:16:53;;;;;;;183.20;15.55;;;;;;;2.01;94.61;102087.78;5083327;28;20028;-76
2021/12/18 07:19:19;;;;;;;196.35;14.98;;;;;;;2.05;94.47;102084.56;5083638;28;20052;-77
2021/12/18 07:21:44;;;;;;;195.00;15.27;;;;;;;2.01;94.73;102083.56;5083495;28;20412;-77
2021/12/18 07:24:10;;;;;;;148.82;12.85;;;;;;;2.07;94.64;102090.66;5085900;28;20053;-76
2021/12/18 07:26:35;;;;;;;93.35;7.15;;;;;;;2.21;94.24;102082.03;5089527;28;20028;-76
2021/12/18 07:29:00;;;;;;;121.72;8.88;;;;;;;2.14;93.99;102069.69;5089011;28;20016;-76
2021/12/18 07:31:27;;;;;;;174.55;15.05;;;;;;;2.19;94.38;102077.66;5089514;28;20385;-76
2021/12/18 07:33:53;;;;;;;185.05;14.13;;;;;;;2.16;94.56;102078.34;5090260;28;20083;-75
2021/12/18 07:36:18;;;;;;;109.88;9.50;;;;;;;2.19;94.71;102085.34;5089755;28;20024;-76
2021/12/18 07:38:44;;;;;;;145.05;13.88;;;;;;;2.20;94.73;102080.28;5090052;28;20052;-77
2021/12/18 07:41:10;;;;;;;117.38;9.68;;;;;;;2.21;95.05;102081.16;5089930;28;20112;-76
2021/12/18 07:43:36;;;;;;;146.93;13.35;;;;;;;2.25;94.77;102082.22;5089897;28;20083;-77
2021/12/18 07:46:02;;;;;;;115.90;9.70;;;;;;;2.26;94.96;102066.91;5089512;28;20033;-77
2021/12/18 07:48:28;;;;;;;71.50;7.35;;;;;;;2.33;94.70;102083.50;5088374;28;20023;-76
2021/12/18 07:50:53;;;;;;;112.38;10.57;;;;;;;2.43;94.71;102079.75;5089596;28;20025;-76
2021/12/18 07:53:19;;;;;;;179.00;14.60;;;;;;;2.42;94.94;102072.84;5089812;28;20021;-77
2021/12/18 07:55:44;;;;;;;163.80;14.18;;;;;;;2.46;94.74;102061.97;5089763;28;20025;-76
2021/12/18 07:58:09;;;;;;;142.63;10.60;;;;;;;2.48;94.75;102065.47;5088177;28;20025;-77
2021/12/18 08:00:35;;;;;;;57.08;6.40;;;;;;;2.34;94.98;102041.69;5088600;28;20082;-77
2021/12/18 08:03:00;;;;;;;67.90;6.25;;;;;;;2.45;94.91;102063.63;5089721;28;20029;-77
2021/12/18 08:05:25;;;;;;;122.95;9.85;;;;;;;2.42;95.07;102048.09;5088366;28;20025;-77
2021/12/18 08:07:51;;;;;;;30.05;4.22;;;;;;;2.42;95.31;102035.28;5088182;28;20020;-76
2021/12/18 08:10:16;;;;;;;111.13;11.57;;;;;;;2.45;95.21;102040.56;5087919;28;20048;-77
2021/12/18 08:12:42;;;;;;;101.95;8.10;;;;;;;2.46;95.34;102031.19;5088325;28;20028;-77
2021/12/18 08:15:08;;;;;;;142.05;12.02;;;;;;;2.53;95.69;102045.19;5089686;28;20052;-76
2021/12/18 08:17:34;;;;;;;209.00;18.80;;;;;;;2.58;95.51;102041.19;5089472;28;20055;-77
2021/12/18 08:20:00;;;;;;;109.20;9.00;;;;;;;2.50;95.65;102027.97;5089227;28;20027;-75
2021/12/18 08:22:25;;;;;;;141.32;12.48;;;;;;;2.56;95.52;102037.66;5089332;28;20024;-74
2021/12/18 08:24:51;;;;;;;214.30;20.42;;;;;;;2.63;95.57;102044.88;5089207;28;20025;-73
2021/12/18 08:27:16;;;;;;;141.35;12.50;;;;;;;2.54;95.73;102029.03;5089040;28;20025;-74
2021/12/18 08:29:42;;;;;;;150.55;13.35;;;;;;;2.68;95.68;102051.13;5087518;28;20093;-75
2021/12/18 08:32:07;;;;;;;141.80;11.27;;;;;;;2.69;95.46;102034.91;5088846;28;20091;-72
2021/12/18 08:34:33;;;;;;;131.85;12.90;;;;;;;2.76;95.37;102035.22;5087414;28;20051;-72
2021/12/18 08:36:58;;;;;;;129.85;14.32;;;;;;;2.75;95.70;102042.03;5084496;28;20024;-72
2021/12/18 08:39:24;;;;;;;192.40;14.55;;;;;;;2.82;95.53;102050.91;5085664;28;20031;-72
2021/12/18 08:41:49;;;;;;;200.95;19.38;;;;;;;2.87;95.39;102028.94;5084385;28;20092;-73
2021/12/18 08:44:15;;;;;;;114.10;12.38;;;;;;;2.86;95.30;102027.16;5085521;28;20151;-73
2021/12/18 08:46:40;;;;;;;99.15;12.88;;;;;;;2.91;95.03;102035.09;5085462;28;20025;-72
2021/12/18 08:49:06;;;;;;;118.32;12.20;;;;;;;2.93;95.14;102028.38;5085353;28;20029;-72
2021/12/18 08:51:32;;;;;;;105.25;9.52;;;;;;;2.87;95.29;102023.81;5085276;28;20052;-73
2021/12/18 08:53:58;;;;;;;127.25;11.95;;;;;;;2.91;95.24;102040.22;5083965;28;20400;-73
2021/12/18 08:56:24;;;;;;;107.45;12.57;;;;;;;2.90;95.27;102028.22;5085182;28;20088;-73
2021/12/18 08:58:51;;;;;;;97.50;9.85;;;;;;;2.96;95.30;102043.91;5085348;28;20033;-73
2021/12/18 09:01:17;;;;;;;65.38;7.20;;;;;;;3.00;95.51;102034.69;5085440;28;20031;-72
2021/12/18 09:03:42;;;;;;;87.13;7.65;;;;;;;2.95;95.40;102027.66;5083898;28;20028;-72
2021/12/18 09:06:08;;;;;;;97.70;9.00;;;;;;;3.04;95.48;102040.03;5084973;28;20128;-73
2021/12/18 09:08:33;;;;;;;128.85;13.35;;;;;;;3.06;95.68;102048.72;5083970;28;20442;-73
2021/12/18 09:10:59;;;;;;;100.40;10.55;;;;;;;3.13;95.58;102036.16;5084938;28;20082;-73
2021/12/18 09:13:24;;;;;;;153.23;11.48;;;;;;;3.21;95.42;102030.59;5085243;28;20033;-73
2021/12/18 09:15:50;;;;;;;148.90;13.25;;;;;;;3.21;95.63;102055.41;5085121;28;20155;-73
2021/12/18 09:18:15;;;;;;;82.72;10.98;;;;;;;3.29;95.46;102036.09;5085052;28;20017;-73
2021/12/18 09:20:41;;;;;;;213.43;14.48;;;;;;;3.33;95.50;102032.00;5084918;28;20020;-74
2021/12/18 09:23:07;;;;;;;69.63;7.93;;;;;;;3.37;95.23;102015.91;5084888;28;20028;-73
2021/12/18 09:25:33;;;;;;;133.13;11.70;;;;;;;3.38;95.13;102017.69;5083390;28;20400;-73
2021/12/18 09:27:59;;;;;;;134.85;14.20;;;;;;;3.35;95.26;102018.41;5084513;28;20024;-73
2021/12/18 09:30:25;;;;;;;124.70;10.35;;;;;;;3.37;95.35;102026.19;5083312;28;20016;-72
2021/12/18 09:32:51;;;;;;;120.00;11.70;;;;;;;3.38;95.52;101998.84;5083407;28;20026;-73
2021/12/18 09:35:16;;;;;;;238.65;20.33;;;;;;;3.49;95.19;102012.16;5084479;28;20024;-74
2021/12/18 09:37:42;;;;;;;174.15;15.45;;;;;;;3.50;95.13;102006.25;5084570;28;20020;-73
2021/12/18 09:40:09;;;;;;;101.75;10.15;;;;;;;3.47;95.22;101992.44;5084511;28;20084;-74
2021/12/18 09:42:36;;;;;;;136.35;10.98;;;;;;;3.37;95.16;101991.94;5083169;28;20035;-72
2021/12/18 09:45:01;;;;;;;236.23;23.33;;;;;;;3.42;95.09;102006.75;5084423;28;20028;-73
2021/12/18 09:47:27;;;;;;;117.93;13.30;;;;;;;3.38;95.18;102001.41;5084325;28;20090;-72
2021/12/18 09:49:54;;;;;;;121.45;11.05;;;;;;;3.35;95.26;101992.72;5084330;28;20021;-73
2021/12/18 09:52:19;;;;;;;108.88;13.95;;;;;;;3.45;95.42;101999.19;5084345;28;20054;-73
2021/12/18 09:54:45;;;;;;;120.15;11.32;;;;;;;3.53;95.18;101981.56;5082779;28;20254;-73
2021/12/18 09:57:10;;;;;;;124.20;12.07;;;;;;;3.56;95.50;101985.97;5083608;28;20025;-73
2021/12/18 09:59:36;;;;;;;157.07;13.70;;;;;;;3.54;95.56;101983.34;5084085;28;20040;-76
2021/12/18 10:02:02;;;;;;;154.13;12.38;;;;;;;3.61;95.49;101975.91;5084343;28;20017;-76
2021/12/18 10:04:35;;;;;;;157.40;18.00;;;;;;;3.72;95.38;101978.16;5084013;28;20186;-74
2021/12/18 10:07:15;;;;;;;297.58;24.50;;;;;;;3.74;95.65;101979.94;5083787;28;20016;-75
2021/12/18 10:09:40;;;;;;;88.00;8.25;;;;;;;3.75;95.76;101972.28;5083904;28;20041;-69
2021/12/18 10:12:26;;;;;;;175.73;18.52;;;;;;;3.87;95.60;101981.34;5082571;28;20111;-69
2021/12/18 10:14:53;;;;;;;145.55;14.48;;;;;;;3.96;95.76;101962.06;5083427;28;20074;-70
2021/12/18 10:17:18;;;;;;;187.30;17.38;;;;;;;4.03;95.91;101959.78;5082486;28;20025;-69
2021/12/18 10:19:44;;;;;;;157.02;14.35;;;;;;;4.07;95.98;101964.25;5083565;28;20024;-70
2021/12/18 10:22:12;;;;;;;190.68;15.85;;;;;;;4.11;95.92;101966.13;5081877;28;20024;-69
2021/12/18 10:24:43;;;;;;;133.88;13.75;;;;;;;4.12;95.98;101951.59;5083451;28;20055;-69
2021/12/18 10:27:24;;;;;;;111.88;12.00;;;;;;;4.20;95.53;101965.66;5083533;28;20024;-67
2021/12/18 10:29:52;;;;;;;181.07;16.38;;;;;;;4.21;95.88;101957.13;5083785;28;20020;-68
2021/12/18 10:32:23;;;;;;;117.93;11.98;;;;;;;4.28;95.69;101960.84;5083654;28;20033;-68
2021/12/18 10:34:53;;;;;;;165.48;17.70;;;;;;;4.35;95.59;101960.28;5083358;28;20043;-68
2021/12/18 10:37:26;;;;;;;147.98;13.20;;;;;;;4.41;95.59;101947.69;5083253;28;20096;-68
2021/12/18 10:39:54;;;;;;;152.35;14.93;;;;;;;4.45;95.67;101949.59;5083382;28;20021;-67
2021/12/18 10:42:24;;;;;;;163.90;14.98;;;;;;;4.44;95.67;101940.09;5083264;28;20044;-74
2021/12/18 10:45:00;;;;;;;124.30;15.00;;;;;;;4.53;95.30;101931.03;5083605;28;20027;-74
2021/12/18 10:48:08;;;;;;;246.77;17.45;;;;;;;4.54;95.44;101931.06;5083199;28;20028;-75
2021/12/18 10:50:36;;;;;;;148.07;13.75;;;;;;;4.53;95.35;101924.19;5040381;28;20176;-75
2021/12/18 10:53:06;;;;;;;96.78;14.15;;;;;;;4.49;95.29;101918.84;5040669;28;20144;-72
2021/12/18 10:55:36;;;;;;;144.45;14.30;;;;;;;4.53;95.27;101915.59;5040631;28;20083;-70
2021/12/18 10:58:04;;;;;;;211.23;15.55;;;;;;;4.55;95.32;101909.69;5040184;28;20040;-70
2021/12/18 11:01:06;;;;;;;200.32;18.38;;;;;;;4.54;95.22;101905.34;5040078;28;20029;-74
2021/12/18 11:03:38;;;;;;;127.20;12.55;;;;;;;4.55;95.50;101886.53;5040722;28;20030;-74
2021/12/18 11:06:08;;;;;;;241.52;18.10;;;;;;;4.59;95.45;101885.84;5040226;28;20033;-74
2021/12/18 11:08:48;;;;;;;150.10;11.23;;;;;;;4.59;95.00;101880.72;5040253;28;20363;-76
2021/12/18 11:13:57;;;;;;;83.47;10.05;;;;;;;4.69;95.17;101883.66;5040429;28;20056;-75
2021/12/18 11:16:25;;;;;;;272.25;20.83;;;;;;;4.65;94.86;101872.34;5040200;28;20092;-75
2021/12/18 11:18:54;;;;;;;256.92;23.17;;;;;;;4.63;95.11;101870.53;5040309;28;20037;-76
2021/12/18 11:21:22;;;;;;;159.55;15.10;;;;;;;4.64;95.40;101859.41;5040222;28;20173;-76
2021/12/18 11:23:54;;;;;;;129.35;12.95;;;;;;;4.76;95.21;101861.63;5041050;28;20037;-76
2021/12/18 11:26:22;;;;;;;338.60;33.67;;;;;;;4.76;95.03;101857.31;5041598;28;20018;-75
2021/12/18 11:28:50;;;;;;;158.60;13.98;;;;;;;4.61;95.35;101837.03;5043566;28;20084;-76
2021/12/18 11:31:16;;;;;;;243.85;22.02;;;;;;;4.70;94.87;101829.69;5042931;28;20025;-76
2021/12/18 11:33:41;;;;;;;135.95;11.50;;;;;;;4.69;94.93;101837.34;5042951;28;20021;-76
2021/12/18 11:36:08;;;;;;;151.93;13.38;;;;;;;4.61;94.90;101826.75;5041291;28;20025;-75
2021/12/18 11:38:36;;;;;;;134.27;13.93;;;;;;;4.60;94.61;101830.13;5042625;28;20072;-76
2021/12/18 11:41:01;;;;;;;129.25;9.85;;;;;;;4.55;94.85;101817.06;5043053;28;20032;-75
2021/12/18 11:43:37;;;;;;;81.65;8.30;;;;;;;4.51;94.53;101815.22;5043018;28;20033;-75
2021/12/18 11:46:27;;;;;;;115.85;8.38;;;;;;;4.46;94.56;101809.00;5042773;28;20025;-77
2021/12/18 11:49:01;;;;;;;80.75;9.85;;;;;;;4.44;94.61;101819.22;5041418;28;20116;-77
2021/12/18 11:51:28;;;;;;;92.20;8.18;;;;;;;4.46;94.61;101812.47;5041248;28;20033;-77
2021/12/18 11:53:54;;;;;;;78.80;8.90;;;;;;;4.47;94.54;101824.50;5042607;28;20065;-77